sensor_id;sensor_type;location;lat;lon;timestamp;P1;durP1;ratioP1;P2;durP2;ratioP2
76689;SDS011;70102;44.506;0.220;2023-05-14T00:04:46;4.70;;;2.87;;
76689;SDS011;70102;44.506;0.220;2023-05-14T00:10:19;3.00;;;2.80;;
76689;SDS011;70102;44.506;0.220;2023-05-14T00:15:52;7.07;;;3.47;;
76689;SDS011;70102;44.506;0.220;2023-05-14T00:21:25;3.70;;;3.10;;
76689;SDS011;70102;44.506;0.220;2023-05-14T00:26:58;6.70;;;3.07;;
76689;SDS011;70102;44.506;0.220;2023-05-14T00:32:31;5.30;;;3.10;;
76689;SDS011;70102;44.506;0.220;2023-05-14T00:38:05;3.63;;;3.13;;
76689;SDS011;70102;44.506;0.220;2023-05-14T00:43:38;7.73;;;3.10;;
76689;SDS011;70102;44.506;0.220;2023-05-14T00:49:11;4.20;;;2.73;;
76689;SDS011;70102;44.506;0.220;2023-05-14T00:54:45;5.27;;;2.53;;
76689;SDS011;70102;44.506;0.220;2023-05-14T01:00:19;2.77;;;2.40;;
76689;SDS011;70102;44.506;0.220;2023-05-14T01:06:01;3.20;;;2.47;;
76689;SDS011;70102;44.506;0.220;2023-05-14T01:11:24;3.53;;;2.57;;
76689;SDS011;70102;44.506;0.220;2023-05-14T01:16:57;6.30;;;3.20;;
76689;SDS011;70102;44.506;0.220;2023-05-14T01:22:28;4.10;;;2.80;;
76689;SDS011;70102;44.506;0.220;2023-05-14T01:28:04;3.37;;;2.43;;
76689;SDS011;70102;44.506;0.220;2023-05-14T01:33:35;3.17;;;2.87;;
76689;SDS011;70102;44.506;0.220;2023-05-14T01:39:08;3.67;;;3.20;;
76689;SDS011;70102;44.506;0.220;2023-05-14T01:44:40;4.40;;;3.17;;
76689;SDS011;70102;44.506;0.220;2023-05-14T01:50:13;4.13;;;3.63;;
76689;SDS011;70102;44.506;0.220;2023-05-14T01:55:46;4.40;;;3.63;;
76689;SDS011;70102;44.506;0.220;2023-05-14T02:01:21;8.13;;;3.40;;
76689;SDS011;70102;44.506;0.220;2023-05-14T02:06:52;5.90;;;3.23;;
76689;SDS011;70102;44.506;0.220;2023-05-14T02:12:25;5.27;;;3.20;;
76689;SDS011;70102;44.506;0.220;2023-05-14T02:17:57;4.03;;;3.53;;
76689;SDS011;70102;44.506;0.220;2023-05-14T02:23:30;3.83;;;3.37;;
76689;SDS011;70102;44.506;0.220;2023-05-14T02:29:03;6.80;;;3.10;;
76689;SDS011;70102;44.506;0.220;2023-05-14T02:34:36;4.60;;;3.13;;
76689;SDS011;70102;44.506;0.220;2023-05-14T02:40:09;5.67;;;3.43;;
76689;SDS011;70102;44.506;0.220;2023-05-14T02:45:41;3.27;;;2.87;;
76689;SDS011;70102;44.506;0.220;2023-05-14T02:51:14;4.03;;;3.40;;
76689;SDS011;70102;44.506;0.220;2023-05-14T02:56:47;7.03;;;3.23;;
76689;SDS011;70102;44.506;0.220;2023-05-14T03:02:19;6.30;;;2.50;;
76689;SDS011;70102;44.506;0.220;2023-05-14T03:07:52;5.43;;;3.10;;
76689;SDS011;70102;44.506;0.220;2023-05-14T03:13:25;4.40;;;2.90;;
76689;SDS011;70102;44.506;0.220;2023-05-14T03:18:58;2.67;;;2.47;;
76689;SDS011;70102;44.506;0.220;2023-05-14T03:24:31;9.00;;;3.13;;
76689;SDS011;70102;44.506;0.220;2023-05-14T03:30:04;5.77;;;2.80;;
76689;SDS011;70102;44.506;0.220;2023-05-14T03:35:35;3.67;;;2.93;;
76689;SDS011;70102;44.506;0.220;2023-05-14T03:41:08;4.20;;;2.57;;
76689;SDS011;70102;44.506;0.220;2023-05-14T03:46:40;2.87;;;2.67;;
76689;SDS011;70102;44.506;0.220;2023-05-14T03:52:12;3.00;;;2.43;;
76689;SDS011;70102;44.506;0.220;2023-05-14T03:57:46;3.73;;;3.20;;
76689;SDS011;70102;44.506;0.220;2023-05-14T04:03:18;4.90;;;2.60;;
76689;SDS011;70102;44.506;0.220;2023-05-14T04:08:50;4.30;;;3.30;;
76689;SDS011;70102;44.506;0.220;2023-05-14T04:14:24;4.47;;;3.40;;
76689;SDS011;70102;44.506;0.220;2023-05-14T04:19:56;3.53;;;3.00;;
76689;SDS011;70102;44.506;0.220;2023-05-14T04:25:28;3.77;;;3.07;;
76689;SDS011;70102;44.506;0.220;2023-05-14T04:31:00;4.63;;;3.20;;
76689;SDS011;70102;44.506;0.220;2023-05-14T04:36:33;4.07;;;2.80;;
76689;SDS011;70102;44.506;0.220;2023-05-14T04:42:06;3.13;;;2.80;;
76689;SDS011;70102;44.506;0.220;2023-05-14T04:47:40;3.20;;;2.90;;
76689;SDS011;70102;44.506;0.220;2023-05-14T04:53:12;3.47;;;3.00;;
76689;SDS011;70102;44.506;0.220;2023-05-14T04:58:44;3.50;;;3.00;;
76689;SDS011;70102;44.506;0.220;2023-05-14T05:04:18;3.77;;;2.90;;
76689;SDS011;70102;44.506;0.220;2023-05-14T05:09:51;3.87;;;3.17;;
76689;SDS011;70102;44.506;0.220;2023-05-14T05:15:24;3.37;;;2.83;;
76689;SDS011;70102;44.506;0.220;2023-05-14T05:20:57;7.27;;;3.10;;
76689;SDS011;70102;44.506;0.220;2023-05-14T05:26:30;3.70;;;3.10;;
76689;SDS011;70102;44.506;0.220;2023-05-14T05:32:04;5.53;;;2.97;;
76689;SDS011;70102;44.506;0.220;2023-05-14T05:37:36;5.83;;;2.97;;
76689;SDS011;70102;44.506;0.220;2023-05-14T05:43:10;3.50;;;3.20;;
76689;SDS011;70102;44.506;0.220;2023-05-14T05:48:42;3.07;;;2.70;;
76689;SDS011;70102;44.506;0.220;2023-05-14T05:54:15;4.83;;;2.87;;
76689;SDS011;70102;44.506;0.220;2023-05-14T06:05:20;5.43;;;2.97;;
76689;SDS011;70102;44.506;0.220;2023-05-14T06:10:54;3.53;;;3.23;;
76689;SDS011;70102;44.506;0.220;2023-05-14T06:16:26;3.20;;;2.83;;
76689;SDS011;70102;44.506;0.220;2023-05-14T06:21:59;3.97;;;2.77;;
76689;SDS011;70102;44.506;0.220;2023-05-14T06:27:31;4.40;;;2.87;;
76689;SDS011;70102;44.506;0.220;2023-05-14T06:33:05;3.87;;;3.03;;
76689;SDS011;70102;44.506;0.220;2023-05-14T06:38:37;3.20;;;2.90;;
76689;SDS011;70102;44.506;0.220;2023-05-14T06:44:11;3.17;;;2.87;;
76689;SDS011;70102;44.506;0.220;2023-05-14T06:49:43;2.73;;;2.53;;
76689;SDS011;70102;44.506;0.220;2023-05-14T06:55:16;3.93;;;2.83;;
76689;SDS011;70102;44.506;0.220;2023-05-14T07:00:48;3.00;;;2.70;;
76689;SDS011;70102;44.506;0.220;2023-05-14T07:06:20;4.20;;;2.80;;
76689;SDS011;70102;44.506;0.220;2023-05-14T07:11:53;3.20;;;2.70;;
76689;SDS011;70102;44.506;0.220;2023-05-14T07:17:25;3.70;;;2.70;;
76689;SDS011;70102;44.506;0.220;2023-05-14T07:22:58;3.20;;;2.90;;
76689;SDS011;70102;44.506;0.220;2023-05-14T07:28:32;3.00;;;2.80;;
76689;SDS011;70102;44.506;0.220;2023-05-14T07:34:06;3.43;;;3.13;;
76689;SDS011;70102;44.506;0.220;2023-05-14T07:39:39;3.17;;;2.83;;
76689;SDS011;70102;44.506;0.220;2023-05-14T07:45:13;5.53;;;2.87;;
76689;SDS011;70102;44.506;0.220;2023-05-14T07:50:46;3.07;;;2.77;;
76689;SDS011;70102;44.506;0.220;2023-05-14T07:56:18;4.70;;;2.77;;
76689;SDS011;70102;44.506;0.220;2023-05-14T08:01:52;3.07;;;2.87;;
76689;SDS011;70102;44.506;0.220;2023-05-14T08:07:25;3.23;;;2.93;;
76689;SDS011;70102;44.506;0.220;2023-05-14T08:12:58;4.87;;;2.73;;
76689;SDS011;70102;44.506;0.220;2023-05-14T08:18:31;5.60;;;2.97;;
76689;SDS011;70102;44.506;0.220;2023-05-14T08:24:05;3.23;;;2.93;;
76689;SDS011;70102;44.506;0.220;2023-05-14T08:29:37;4.37;;;3.27;;
76689;SDS011;70102;44.506;0.220;2023-05-14T08:35:09;3.00;;;2.30;;
76689;SDS011;70102;44.506;0.220;2023-05-14T08:40:46;2.57;;;2.37;;
76689;SDS011;70102;44.506;0.220;2023-05-14T08:46:16;2.73;;;2.50;;
76689;SDS011;70102;44.506;0.220;2023-05-14T08:51:48;6.47;;;2.77;;
76689;SDS011;70102;44.506;0.220;2023-05-14T08:57:22;4.20;;;2.67;;
76689;SDS011;70102;44.506;0.220;2023-05-14T09:02:55;3.97;;;2.80;;
76689;SDS011;70102;44.506;0.220;2023-05-14T09:08:28;6.00;;;2.67;;
76689;SDS011;70102;44.506;0.220;2023-05-14T09:14:02;5.67;;;3.00;;
76689;SDS011;70102;44.506;0.220;2023-05-14T09:19:34;3.43;;;2.47;;
76689;SDS011;70102;44.506;0.220;2023-05-14T09:25:08;2.83;;;2.37;;
76689;SDS011;70102;44.506;0.220;2023-05-14T09:30:41;3.23;;;2.47;;
76689;SDS011;70102;44.506;0.220;2023-05-14T09:36:13;3.37;;;2.43;;
76689;SDS011;70102;44.506;0.220;2023-05-14T09:41:46;2.50;;;2.30;;
76689;SDS011;70102;44.506;0.220;2023-05-14T09:47:17;3.80;;;2.60;;
76689;SDS011;70102;44.506;0.220;2023-05-14T09:52:51;3.00;;;2.50;;
76689;SDS011;70102;44.506;0.220;2023-05-14T09:58:24;3.03;;;2.40;;
76689;SDS011;70102;44.506;0.220;2023-05-14T10:03:58;2.53;;;2.03;;
76689;SDS011;70102;44.506;0.220;2023-05-14T10:09:32;5.10;;;2.40;;
76689;SDS011;70102;44.506;0.220;2023-05-14T10:15:05;2.70;;;2.50;;
76689;SDS011;70102;44.506;0.220;2023-05-14T10:20:38;3.90;;;2.17;;
76689;SDS011;70102;44.506;0.220;2023-05-14T10:26:09;5.30;;;3.27;;
76689;SDS011;70102;44.506;0.220;2023-05-14T10:31:46;4.13;;;1.90;;
76689;SDS011;70102;44.506;0.220;2023-05-14T10:37:15;2.67;;;2.47;;
76689;SDS011;70102;44.506;0.220;2023-05-14T10:42:48;3.40;;;2.30;;
76689;SDS011;70102;44.506;0.220;2023-05-14T10:48:20;6.03;;;3.03;;
76689;SDS011;70102;44.506;0.220;2023-05-14T10:53:53;5.17;;;2.57;;
76689;SDS011;70102;44.506;0.220;2023-05-14T10:59:26;2.97;;;1.93;;
76689;SDS011;70102;44.506;0.220;2023-05-14T11:04:58;2.40;;;2.20;;
76689;SDS011;70102;44.506;0.220;2023-05-14T11:10:31;3.93;;;2.23;;
76689;SDS011;70102;44.506;0.220;2023-05-14T11:16:04;3.43;;;1.87;;
76689;SDS011;70102;44.506;0.220;2023-05-14T11:21:36;3.13;;;2.17;;
76689;SDS011;70102;44.506;0.220;2023-05-14T11:27:09;3.63;;;2.20;;
76689;SDS011;70102;44.506;0.220;2023-05-14T11:32:43;4.90;;;1.87;;
76689;SDS011;70102;44.506;0.220;2023-05-14T11:38:16;3.50;;;2.10;;
76689;SDS011;70102;44.506;0.220;2023-05-14T11:43:49;6.10;;;3.40;;
76689;SDS011;70102;44.506;0.220;2023-05-14T11:49:23;2.30;;;1.70;;
76689;SDS011;70102;44.506;0.220;2023-05-14T11:54:56;4.40;;;1.80;;
76689;SDS011;70102;44.506;0.220;2023-05-14T12:00:30;2.77;;;2.30;;
76689;SDS011;70102;44.506;0.220;2023-05-14T12:06:05;5.37;;;2.20;;
76689;SDS011;70102;44.506;0.220;2023-05-14T12:11:36;4.33;;;1.90;;
76689;SDS011;70102;44.506;0.220;2023-05-14T12:17:18;3.00;;;1.93;;
76689;SDS011;70102;44.506;0.220;2023-05-14T12:22:42;4.10;;;2.13;;
76689;SDS011;70102;44.506;0.220;2023-05-14T12:28:16;3.70;;;2.40;;
76689;SDS011;70102;44.506;0.220;2023-05-14T12:33:49;3.50;;;2.50;;
76689;SDS011;70102;44.506;0.220;2023-05-14T12:39:22;2.77;;;2.10;;
76689;SDS011;70102;44.506;0.220;2023-05-14T12:44:54;4.07;;;2.07;;
76689;SDS011;70102;44.506;0.220;2023-05-14T12:50:27;3.07;;;2.20;;
76689;SDS011;70102;44.506;0.220;2023-05-14T12:56:01;2.47;;;1.87;;
76689;SDS011;70102;44.506;0.220;2023-05-14T13:01:35;1.90;;;1.77;;
76689;SDS011;70102;44.506;0.220;2023-05-14T13:07:08;4.50;;;2.20;;
76689;SDS011;70102;44.506;0.220;2023-05-14T13:12:42;4.60;;;1.90;;
76689;SDS011;70102;44.506;0.220;2023-05-14T13:18:16;3.30;;;1.90;;
76689;SDS011;70102;44.506;0.220;2023-05-14T13:23:48;2.80;;;2.47;;
76689;SDS011;70102;44.506;0.220;2023-05-14T13:29:21;2.70;;;2.50;;
76689;SDS011;70102;44.506;0.220;2023-05-14T13:34:54;2.27;;;2.07;;
76689;SDS011;70102;44.506;0.220;2023-05-14T13:40:27;1.90;;;1.80;;
76689;SDS011;70102;44.506;0.220;2023-05-14T13:46:01;2.40;;;2.20;;
76689;SDS011;70102;44.506;0.220;2023-05-14T13:51:34;2.23;;;2.03;;
76689;SDS011;70102;44.506;0.220;2023-05-14T13:57:07;4.40;;;2.13;;
76689;SDS011;70102;44.506;0.220;2023-05-14T14:02:40;2.30;;;2.10;;
76689;SDS011;70102;44.506;0.220;2023-05-14T14:08:13;3.50;;;1.83;;
76689;SDS011;70102;44.506;0.220;2023-05-14T14:13:47;2.00;;;1.90;;
76689;SDS011;70102;44.506;0.220;2023-05-14T14:19:19;2.67;;;2.37;;
76689;SDS011;70102;44.506;0.220;2023-05-14T14:24:51;3.80;;;2.50;;
76689;SDS011;70102;44.506;0.220;2023-05-14T14:30:24;3.03;;;2.30;;
76689;SDS011;70102;44.506;0.220;2023-05-14T14:35:56;2.50;;;2.30;;
76689;SDS011;70102;44.506;0.220;2023-05-14T14:41:30;2.30;;;2.10;;
76689;SDS011;70102;44.506;0.220;2023-05-14T14:47:03;3.00;;;2.40;;
76689;SDS011;70102;44.506;0.220;2023-05-14T14:52:36;6.10;;;2.60;;
76689;SDS011;70102;44.506;0.220;2023-05-14T14:58:10;3.90;;;2.20;;
76689;SDS011;70102;44.506;0.220;2023-05-14T15:03:43;4.57;;;2.60;;
76689;SDS011;70102;44.506;0.220;2023-05-14T15:09:15;2.83;;;2.47;;
76689;SDS011;70102;44.506;0.220;2023-05-14T15:14:48;4.53;;;2.50;;
76689;SDS011;70102;44.506;0.220;2023-05-14T15:20:21;3.00;;;2.70;;
76689;SDS011;70102;44.506;0.220;2023-05-14T15:25:54;6.40;;;3.07;;
76689;SDS011;70102;44.506;0.220;2023-05-14T15:31:27;4.07;;;3.17;;
76689;SDS011;70102;44.506;0.220;2023-05-14T15:36:59;3.63;;;2.63;;
76689;SDS011;70102;44.506;0.220;2023-05-14T15:42:32;5.07;;;2.73;;
76689;SDS011;70102;44.506;0.220;2023-05-14T15:48:05;3.50;;;2.73;;
76689;SDS011;70102;44.506;0.220;2023-05-14T15:53:38;3.47;;;2.87;;
76689;SDS011;70102;44.506;0.220;2023-05-14T16:10:18;4.53;;;2.97;;
76689;SDS011;70102;44.506;0.220;2023-05-14T16:15:49;6.43;;;2.60;;
76689;SDS011;70102;44.506;0.220;2023-05-14T16:21:22;5.73;;;2.93;;
76689;SDS011;70102;44.506;0.220;2023-05-14T16:26:55;5.20;;;2.90;;
76689;SDS011;70102;44.506;0.220;2023-05-14T16:32:27;3.47;;;3.07;;
76689;SDS011;70102;44.506;0.220;2023-05-14T16:38:00;5.83;;;2.90;;
76689;SDS011;70102;44.506;0.220;2023-05-14T16:43:32;2.27;;;2.17;;
76689;SDS011;70102;44.506;0.220;2023-05-14T16:49:06;5.40;;;2.60;;
76689;SDS011;70102;44.506;0.220;2023-05-14T16:54:37;2.80;;;2.57;;
76689;SDS011;70102;44.506;0.220;2023-05-14T17:00:11;7.83;;;2.77;;
76689;SDS011;70102;44.506;0.220;2023-05-14T17:05:44;4.13;;;2.63;;
76689;SDS011;70102;44.506;0.220;2023-05-14T17:11:17;5.07;;;2.40;;
76689;SDS011;70102;44.506;0.220;2023-05-14T17:16:49;2.60;;;2.40;;
76689;SDS011;70102;44.506;0.220;2023-05-14T17:22:22;2.87;;;2.60;;
76689;SDS011;70102;44.506;0.220;2023-05-14T17:27:55;2.77;;;2.57;;
76689;SDS011;70102;44.506;0.220;2023-05-14T17:33:27;3.43;;;2.80;;
76689;SDS011;70102;44.506;0.220;2023-05-14T17:39:01;2.43;;;2.23;;
76689;SDS011;70102;44.506;0.220;2023-05-14T17:44:35;4.57;;;2.40;;
76689;SDS011;70102;44.506;0.220;2023-05-14T17:50:07;2.60;;;2.40;;
76689;SDS011;70102;44.506;0.220;2023-05-14T17:55:41;3.23;;;2.57;;
76689;SDS011;70102;44.506;0.220;2023-05-14T18:01:13;3.70;;;2.77;;
76689;SDS011;70102;44.506;0.220;2023-05-14T18:06:46;5.60;;;2.93;;
76689;SDS011;70102;44.506;0.220;2023-05-14T18:12:18;2.73;;;2.53;;
76689;SDS011;70102;44.506;0.220;2023-05-14T18:17:52;5.33;;;2.67;;
76689;SDS011;70102;44.506;0.220;2023-05-14T18:28:58;3.53;;;2.60;;
76689;SDS011;70102;44.506;0.220;2023-05-14T18:34:32;4.87;;;4.17;;
76689;SDS011;70102;44.506;0.220;2023-05-14T18:40:05;6.40;;;4.97;;
76689;SDS011;70102;44.506;0.220;2023-05-14T18:45:38;4.80;;;4.00;;
76689;SDS011;70102;44.506;0.220;2023-05-14T18:51:11;5.00;;;4.47;;
76689;SDS011;70102;44.506;0.220;2023-05-14T18:56:44;7.40;;;4.33;;
76689;SDS011;70102;44.506;0.220;2023-05-14T19:02:17;10.50;;;5.07;;
76689;SDS011;70102;44.506;0.220;2023-05-14T19:07:51;8.03;;;6.30;;
76689;SDS011;70102;44.506;0.220;2023-05-14T19:13:24;10.17;;;5.30;;
76689;SDS011;70102;44.506;0.220;2023-05-14T19:18:57;9.27;;;5.70;;
76689;SDS011;70102;44.506;0.220;2023-05-14T19:24:31;8.23;;;5.80;;
76689;SDS011;70102;44.506;0.220;2023-05-14T19:30:04;10.77;;;7.90;;
76689;SDS011;70102;44.506;0.220;2023-05-14T19:35:37;9.80;;;5.47;;
76689;SDS011;70102;44.506;0.220;2023-05-14T19:41:09;10.47;;;7.13;;
76689;SDS011;70102;44.506;0.220;2023-05-14T19:46:41;18.47;;;7.33;;
76689;SDS011;70102;44.506;0.220;2023-05-14T19:52:14;12.60;;;7.70;;
76689;SDS011;70102;44.506;0.220;2023-05-14T19:57:47;8.87;;;7.37;;
76689;SDS011;70102;44.506;0.220;2023-05-14T20:03:20;13.80;;;7.20;;
76689;SDS011;70102;44.506;0.220;2023-05-14T20:08:53;11.43;;;7.50;;
76689;SDS011;70102;44.506;0.220;2023-05-14T20:14:27;8.90;;;6.87;;
76689;SDS011;70102;44.506;0.220;2023-05-14T20:19:59;13.13;;;8.23;;
76689;SDS011;70102;44.506;0.220;2023-05-14T20:25:32;17.10;;;10.10;;
76689;SDS011;70102;44.506;0.220;2023-05-14T20:31:05;16.43;;;10.53;;
76689;SDS011;70102;44.506;0.220;2023-05-14T20:36:37;15.20;;;9.33;;
76689;SDS011;70102;44.506;0.220;2023-05-14T20:42:09;11.47;;;9.03;;
76689;SDS011;70102;44.506;0.220;2023-05-14T20:47:41;17.57;;;10.77;;
76689;SDS011;70102;44.506;0.220;2023-05-14T20:53:14;16.07;;;9.93;;
76689;SDS011;70102;44.506;0.220;2023-05-14T20:58:47;18.47;;;10.23;;
76689;SDS011;70102;44.506;0.220;2023-05-14T21:04:19;19.30;;;11.07;;
76689;SDS011;70102;44.506;0.220;2023-05-14T21:09:53;17.37;;;10.43;;
76689;SDS011;70102;44.506;0.220;2023-05-14T21:15:26;15.73;;;9.67;;
76689;SDS011;70102;44.506;0.220;2023-05-14T21:21:00;16.10;;;9.10;;
76689;SDS011;70102;44.506;0.220;2023-05-14T21:26:33;16.87;;;9.47;;
76689;SDS011;70102;44.506;0.220;2023-05-14T21:32:07;13.47;;;9.97;;
76689;SDS011;70102;44.506;0.220;2023-05-14T21:37:39;10.97;;;8.87;;
76689;SDS011;70102;44.506;0.220;2023-05-14T21:43:12;13.10;;;9.13;;
76689;SDS011;70102;44.506;0.220;2023-05-14T21:48:46;18.03;;;10.03;;
76689;SDS011;70102;44.506;0.220;2023-05-14T21:54:19;12.50;;;9.20;;
76689;SDS011;70102;44.506;0.220;2023-05-14T21:59:52;17.87;;;9.63;;
76689;SDS011;70102;44.506;0.220;2023-05-14T22:05:24;15.73;;;10.70;;
76689;SDS011;70102;44.506;0.220;2023-05-14T22:10:57;18.47;;;10.53;;
76689;SDS011;70102;44.506;0.220;2023-05-14T22:16:31;15.73;;;10.20;;
76689;SDS011;70102;44.506;0.220;2023-05-14T22:22:03;20.23;;;9.70;;
76689;SDS011;70102;44.506;0.220;2023-05-14T22:27:36;19.07;;;10.93;;
76689;SDS011;70102;44.506;0.220;2023-05-14T22:33:09;23.10;;;11.30;;
76689;SDS011;70102;44.506;0.220;2023-05-14T22:38:42;17.77;;;10.97;;
76689;SDS011;70102;44.506;0.220;2023-05-14T22:44:15;20.23;;;11.60;;
76689;SDS011;70102;44.506;0.220;2023-05-14T22:49:48;15.87;;;11.70;;
76689;SDS011;70102;44.506;0.220;2023-05-14T22:55:21;21.37;;;10.87;;
76689;SDS011;70102;44.506;0.220;2023-05-14T23:00:55;18.20;;;9.90;;
76689;SDS011;70102;44.506;0.220;2023-05-14T23:06:28;15.70;;;10.50;;
76689;SDS011;70102;44.506;0.220;2023-05-14T23:11:59;18.13;;;10.43;;
76689;SDS011;70102;44.506;0.220;2023-05-14T23:17:31;13.40;;;10.50;;
76689;SDS011;70102;44.506;0.220;2023-05-14T23:23:05;13.73;;;10.30;;
76689;SDS011;70102;44.506;0.220;2023-05-14T23:28:38;13.23;;;9.23;;
76689;SDS011;70102;44.506;0.220;2023-05-14T23:34:11;14.57;;;9.20;;
76689;SDS011;70102;44.506;0.220;2023-05-14T23:39:43;15.37;;;9.10;;
76689;SDS011;70102;44.506;0.220;2023-05-14T23:45:15;13.20;;;9.10;;
76689;SDS011;70102;44.506;0.220;2023-05-14T23:50:48;13.67;;;8.50;;
76689;SDS011;70102;44.506;0.220;2023-05-14T23:56:21;10.73;;;7.73;;
